Regional Weather

 

KMKL - Jackson, TN, USA
Distance from station: WNW 50mi, 81km
Updated: Thu, Jul-07-2022 1:53am CDT
Clear
Clear
 Wind from S
Wind: S 3 mph , 6 km/h
Temperature: 79°F , 26°C
Dew Point: 75°F , 24°C
Humidity: 89%
Barometer: 29.95 inHg , 1014.2 hPa
Clouds: Clear
Visibility: 10 miles , 16 km
2022/07/07 06:53 KMKL 070653Z AUTO 18003KT 10SM CLR 26/24 A2995 RMK AO2 SLP134 T02560239
KMEM - Memphis, TN, USA
Distance from station: W 108mi, 173km
Updated: Thu, Jul-07-2022 1:54am CDT
Few Clouds
Few Clouds
 Wind from SSW
Wind: SSW 6 mph , 9 km/h
Temperature: 84°F , 29°C
Heat Index: 92°F , 33°C
Dew Point: 75°F , 24°C
Humidity: 74%
Barometer: 29.94 inHg , 1013.9 hPa
Clouds: Few Clouds
Visibility: 10 miles , 16 km
Cloud details: Few Clouds 25000 ft
2022/07/07 06:54 KMEM 070654Z 21005KT 10SM FEW250 29/24 A2994 RMK AO2 SLP133 T02940244 $
 
KBNA - Nashville, TN, USA
Distance from station: NE 97mi, 157km
Updated: Thu, Jul-07-2022 1:53am CDT
Partly cloudy
Partly cloudy
 Wind from SW
Wind: SW 6 mph , 9 km/h
Temperature: 81°F , 27°C
Heat Index: 86°F , 30°C
Dew Point: 73°F , 23°C
Humidity: 79%
Barometer: 29.96 inHg , 1014.6 hPa
Clouds: Partly cloudy
Visibility: 10 miles , 16 km
Cloud details: Few Clouds 2000 ft
Few Clouds 5000 ft
Partly cloudy 11000 ft
2022/07/07 06:53 KBNA 070653Z 22005KT 10SM FEW020 FEW050 SCT110 27/23 A2996 RMK AO2 LTG DSNT SE RAE20 SLP138 P0019 T02670228
KCKV - Clarksville, TN, USA
Distance from station: NNE 99mi, 159km
Updated: Thu, Jul-07-2022 1:52am CDT
Clear
Clear
 Wind from calm
Wind: Calm
Temperature: 82°F , 28°C
Heat Index: 87°F , 31°C
Dew Point: 73°F , 23°C
Humidity: 74%
Barometer: 29.94 inHg , 1013.9 hPa
Clouds: Clear
Visibility: 10 miles , 16 km
2022/07/07 06:52 KCKV 070652Z AUTO 00000KT 10SM CLR 28/23 A2994 RMK AO2 SLP129 T02830233
 
KPAH - Paducah, KY, USA
Distance from station: NNW 128mi, 205km
Updated: Thu, Jul-07-2022 1:53am CDT
Clear
Clear
 Wind from calm
Wind: Calm
Temperature: 81°F , 27°C
Heat Index: 88°F , 31°C
Dew Point: 77°F , 25°C
Humidity: 89%
Barometer: 29.92 inHg , 1013.2 hPa
Clouds: Clear
Visibility: 7 miles , 11 km
2022/07/07 06:53 KPAH 070653Z AUTO 00000KT 7SM CLR 27/25 A2992 RMK AO2 SLP125 T02670250
KCHA - Chattanooga, TN, USA
Distance from station: E 165mi, 265km
Updated: Thu, Jul-07-2022 1:53am CDT
Clear
Clear
 Wind from calm
Wind: Calm
Temperature: 79°F , 26°C
Dew Point: 73°F , 23°C
Humidity: 84%
Barometer: 30.01 inHg , 1016.3 hPa
Clouds: Clear
Visibility: 10 miles , 16 km
2022/07/07 06:53 KCHA 070653Z 00000KT 10SM CLR 26/23 A3001 RMK AO2 SLP151 T02560233 $
 
KTYS - Knoxville, TN, USA
Distance from station: E 234mi, 377km
Updated: Thu, Jul-07-2022 1:53am CDT
Mostly cloudy
Mostly cloudy
 Wind from calm
Wind: Calm
Temperature: 73°F , 23°C
Dew Point: 72°F , 22°C
Humidity: 94%
Barometer: 30.01 inHg , 1016.3 hPa
Clouds: Mostly cloudy
Visibility: 10 miles , 16 km
Cloud details: Partly cloudy 6000 ft
Mostly cloudy 9000 ft
2022/07/07 06:53 KTYS 070653Z 00000KT 10SM SCT060 BKN090 23/22 A3001 RMK AO2 SLP149 T02330222 $
KLIT - Little Rock, AR, USA
Distance from station: W 240mi, 386km
Updated: Thu, Jul-07-2022 1:53am CDT
Few Clouds
Few Clouds
 Wind from WSW
Wind: WSW 8 mph , 13 km/h
Temperature: 81°F , 27°C
Heat Index: 86°F , 30°C
Dew Point: 73°F , 23°C
Humidity: 79%
Barometer: 29.94 inHg , 1013.9 hPa
Clouds: Few Clouds
Visibility: 10 miles , 16 km
Cloud details: Few Clouds 25000 ft
2022/07/07 06:53 KLIT 070653Z 25007KT 10SM FEW250 27/23 A2994 RMK AO2 SLP137 T02720233

Refresh Page for latest data.